sensor_id;sensor_type;location;lat;lon;timestamp;P1;durP1;ratioP1;P2;durP2;ratioP2
76852;SDS011;65825;52.232;10.566;2023-05-10T00:01:14;11.27;;;5.25;;
76852;SDS011;65825;52.232;10.566;2023-05-10T00:03:39;8.73;;;5.30;;
76852;SDS011;65825;52.232;10.566;2023-05-10T00:06:05;10.63;;;5.28;;
76852;SDS011;65825;52.232;10.566;2023-05-10T00:08:30;8.77;;;4.93;;
76852;SDS011;65825;52.232;10.566;2023-05-10T00:10:56;10.43;;;5.38;;
76852;SDS011;65825;52.232;10.566;2023-05-10T00:13:21;7.17;;;4.97;;
76852;SDS011;65825;52.232;10.566;2023-05-10T00:15:46;9.70;;;5.35;;
76852;SDS011;65825;52.232;10.566;2023-05-10T00:18:12;12.93;;;4.83;;
76852;SDS011;65825;52.232;10.566;2023-05-10T00:20:37;9.27;;;4.88;;
76852;SDS011;65825;52.232;10.566;2023-05-10T00:23:02;10.37;;;5.40;;
76852;SDS011;65825;52.232;10.566;2023-05-10T00:25:28;9.18;;;5.00;;
76852;SDS011;65825;52.232;10.566;2023-05-10T00:27:53;8.23;;;4.93;;
76852;SDS011;65825;52.232;10.566;2023-05-10T00:30:20;9.23;;;5.13;;
76852;SDS011;65825;52.232;10.566;2023-05-10T00:32:45;9.75;;;5.55;;
76852;SDS011;65825;52.232;10.566;2023-05-10T00:35:12;7.22;;;4.60;;
76852;SDS011;65825;52.232;10.566;2023-05-10T00:37:38;8.90;;;5.63;;
76852;SDS011;65825;52.232;10.566;2023-05-10T00:40:03;8.43;;;5.07;;
76852;SDS011;65825;52.232;10.566;2023-05-10T00:42:29;8.35;;;5.13;;
76852;SDS011;65825;52.232;10.566;2023-05-10T00:44:55;7.77;;;5.10;;
76852;SDS011;65825;52.232;10.566;2023-05-10T00:47:21;11.02;;;5.10;;
76852;SDS011;65825;52.232;10.566;2023-05-10T00:49:47;7.05;;;4.60;;
76852;SDS011;65825;52.232;10.566;2023-05-10T00:52:12;8.70;;;4.90;;
76852;SDS011;65825;52.232;10.566;2023-05-10T00:54:38;7.55;;;4.97;;
76852;SDS011;65825;52.232;10.566;2023-05-10T00:57:03;8.35;;;4.72;;
76852;SDS011;65825;52.232;10.566;2023-05-10T00:59:29;8.55;;;4.90;;
76852;SDS011;65825;52.232;10.566;2023-05-10T01:01:54;11.23;;;5.03;;
76852;SDS011;65825;52.232;10.566;2023-05-10T01:04:20;9.23;;;4.82;;
76852;SDS011;65825;52.232;10.566;2023-05-10T01:06:50;15.00;;;5.43;;
76852;SDS011;65825;52.232;10.566;2023-05-10T01:09:16;11.18;;;5.30;;
76852;SDS011;65825;52.232;10.566;2023-05-10T01:14:08;8.10;;;5.10;;
76852;SDS011;65825;52.232;10.566;2023-05-10T01:16:35;8.95;;;5.03;;
76852;SDS011;65825;52.232;10.566;2023-05-10T01:19:06;8.52;;;4.95;;
76852;SDS011;65825;52.232;10.566;2023-05-10T01:35:56;8.90;;;4.85;;
76852;SDS011;65825;52.232;10.566;2023-05-10T01:38:46;8.88;;;5.20;;
76852;SDS011;65825;52.232;10.566;2023-05-10T01:41:25;7.85;;;4.53;;
76852;SDS011;65825;52.232;10.566;2023-05-10T01:46:38;6.35;;;4.47;;
76852;SDS011;65825;52.232;10.566;2023-05-10T01:49:08;9.18;;;5.05;;
76852;SDS011;65825;52.232;10.566;2023-05-10T01:51:48;9.20;;;4.70;;
76852;SDS011;65825;52.232;10.566;2023-05-10T01:54:17;7.32;;;4.88;;
76852;SDS011;65825;52.232;10.566;2023-05-10T01:56:45;8.48;;;4.95;;
76852;SDS011;65825;52.232;10.566;2023-05-10T01:59:16;7.97;;;4.75;;
76852;SDS011;65825;52.232;10.566;2023-05-10T02:01:43;8.60;;;5.00;;
76852;SDS011;65825;52.232;10.566;2023-05-10T02:04:10;10.13;;;5.38;;
76852;SDS011;65825;52.232;10.566;2023-05-10T02:06:38;8.68;;;4.78;;
76852;SDS011;65825;52.232;10.566;2023-05-10T02:09:05;9.40;;;5.47;;
76852;SDS011;65825;52.232;10.566;2023-05-10T02:11:32;7.57;;;4.55;;
76852;SDS011;65825;52.232;10.566;2023-05-10T02:13:58;9.38;;;4.93;;
76852;SDS011;65825;52.232;10.566;2023-05-10T02:16:26;7.93;;;5.05;;
76852;SDS011;65825;52.232;10.566;2023-05-10T02:18:52;8.63;;;5.10;;
76852;SDS011;65825;52.232;10.566;2023-05-10T02:21:19;9.10;;;5.15;;
76852;SDS011;65825;52.232;10.566;2023-05-10T02:23:46;9.25;;;5.80;;
76852;SDS011;65825;52.232;10.566;2023-05-10T02:26:15;7.95;;;4.70;;
76852;SDS011;65825;52.232;10.566;2023-05-10T02:28:43;9.82;;;5.45;;
76852;SDS011;65825;52.232;10.566;2023-05-10T02:31:09;8.45;;;5.10;;
76852;SDS011;65825;52.232;10.566;2023-05-10T02:33:35;7.85;;;4.97;;
76852;SDS011;65825;52.232;10.566;2023-05-10T02:36:03;12.38;;;5.25;;
76852;SDS011;65825;52.232;10.566;2023-05-10T02:38:30;8.40;;;4.95;;
76852;SDS011;65825;52.232;10.566;2023-05-10T02:40:58;7.60;;;5.07;;
76852;SDS011;65825;52.232;10.566;2023-05-10T02:43:24;9.02;;;4.55;;
76852;SDS011;65825;52.232;10.566;2023-05-10T02:48:16;8.43;;;5.40;;
76852;SDS011;65825;52.232;10.566;2023-05-10T02:50:43;8.45;;;5.13;;
76852;SDS011;65825;52.232;10.566;2023-05-10T02:53:10;11.27;;;5.75;;
76852;SDS011;65825;52.232;10.566;2023-05-10T02:55:40;8.63;;;5.35;;
76852;SDS011;65825;52.232;10.566;2023-05-10T02:58:07;9.77;;;5.07;;
76852;SDS011;65825;52.232;10.566;2023-05-10T03:00:33;8.23;;;5.20;;
76852;SDS011;65825;52.232;10.566;2023-05-10T03:02:58;10.93;;;5.78;;
76852;SDS011;65825;52.232;10.566;2023-05-10T03:05:24;8.52;;;5.05;;
76852;SDS011;65825;52.232;10.566;2023-05-10T03:07:49;8.27;;;5.05;;
76852;SDS011;65825;52.232;10.566;2023-05-10T03:10:16;10.68;;;5.60;;
76852;SDS011;65825;52.232;10.566;2023-05-10T03:17:53;16.30;;;6.57;;
76852;SDS011;65825;52.232;10.566;2023-05-10T03:20:25;9.70;;;4.97;;
76852;SDS011;65825;52.232;10.566;2023-05-10T03:25:34;7.93;;;5.30;;
76852;SDS011;65825;52.232;10.566;2023-05-10T03:28:01;8.80;;;5.30;;
76852;SDS011;65825;52.232;10.566;2023-05-10T03:30:29;9.15;;;5.35;;
76852;SDS011;65825;52.232;10.566;2023-05-10T03:32:55;12.25;;;5.25;;
76852;SDS011;65825;52.232;10.566;2023-05-10T03:35:21;10.77;;;5.25;;
76852;SDS011;65825;52.232;10.566;2023-05-10T03:37:48;7.78;;;5.10;;
76852;SDS011;65825;52.232;10.566;2023-05-10T03:40:13;7.23;;;4.73;;
76852;SDS011;65825;52.232;10.566;2023-05-10T03:42:39;8.98;;;5.13;;
76852;SDS011;65825;52.232;10.566;2023-05-10T03:45:04;8.20;;;5.50;;
76852;SDS011;65825;52.232;10.566;2023-05-10T03:47:30;11.65;;;5.10;;
76852;SDS011;65825;52.232;10.566;2023-05-10T03:49:55;10.13;;;5.40;;
76852;SDS011;65825;52.232;10.566;2023-05-10T03:52:20;8.20;;;4.90;;
76852;SDS011;65825;52.232;10.566;2023-05-10T03:54:46;8.43;;;5.70;;
76852;SDS011;65825;52.232;10.566;2023-05-10T03:57:11;10.63;;;5.40;;
76852;SDS011;65825;52.232;10.566;2023-05-10T03:59:36;10.10;;;5.57;;
76852;SDS011;65825;52.232;10.566;2023-05-10T04:02:01;9.00;;;5.43;;
76852;SDS011;65825;52.232;10.566;2023-05-10T04:04:27;8.50;;;5.57;;
76852;SDS011;65825;52.232;10.566;2023-05-10T04:06:52;12.88;;;5.55;;
76852;SDS011;65825;52.232;10.566;2023-05-10T04:09:18;9.43;;;5.50;;
76852;SDS011;65825;52.232;10.566;2023-05-10T04:11:43;10.60;;;5.28;;
76852;SDS011;65825;52.232;10.566;2023-05-10T04:14:08;8.67;;;5.63;;
76852;SDS011;65825;52.232;10.566;2023-05-10T04:16:34;10.85;;;5.50;;
76852;SDS011;65825;52.232;10.566;2023-05-10T04:18:59;14.23;;;6.13;;
76852;SDS011;65825;52.232;10.566;2023-05-10T04:21:24;9.75;;;5.35;;
76852;SDS011;65825;52.232;10.566;2023-05-10T04:23:50;8.98;;;5.55;;
76852;SDS011;65825;52.232;10.566;2023-05-10T04:26:15;8.00;;;5.18;;
76852;SDS011;65825;52.232;10.566;2023-05-10T04:28:41;10.38;;;5.35;;
76852;SDS011;65825;52.232;10.566;2023-05-10T04:31:07;10.50;;;5.60;;
76852;SDS011;65825;52.232;10.566;2023-05-10T04:33:34;9.50;;;5.32;;
76852;SDS011;65825;52.232;10.566;2023-05-10T04:38:25;9.15;;;5.43;;
76852;SDS011;65825;52.232;10.566;2023-05-10T04:40:51;13.50;;;5.90;;
76852;SDS011;65825;52.232;10.566;2023-05-10T04:43:17;8.52;;;5.60;;
76852;SDS011;65825;52.232;10.566;2023-05-10T04:45:42;8.90;;;5.13;;
76852;SDS011;65825;52.232;10.566;2023-05-10T04:48:08;9.23;;;5.93;;
76852;SDS011;65825;52.232;10.566;2023-05-10T04:50:33;15.45;;;5.50;;
76852;SDS011;65825;52.232;10.566;2023-05-10T04:52:58;9.10;;;5.77;;
76852;SDS011;65825;52.232;10.566;2023-05-10T04:55:24;7.75;;;5.13;;
76852;SDS011;65825;52.232;10.566;2023-05-10T04:57:49;8.25;;;5.72;;
76852;SDS011;65825;52.232;10.566;2023-05-10T05:00:14;10.65;;;5.68;;
76852;SDS011;65825;52.232;10.566;2023-05-10T05:02:43;8.98;;;5.78;;
76852;SDS011;65825;52.232;10.566;2023-05-10T05:05:10;10.70;;;5.65;;
76852;SDS011;65825;52.232;10.566;2023-05-10T05:07:35;9.55;;;5.25;;
76852;SDS011;65825;52.232;10.566;2023-05-10T05:10:00;10.27;;;5.23;;
76852;SDS011;65825;52.232;10.566;2023-05-10T05:12:26;10.97;;;5.87;;
76852;SDS011;65825;52.232;10.566;2023-05-10T05:14:51;10.17;;;5.70;;
76852;SDS011;65825;52.232;10.566;2023-05-10T05:17:16;11.50;;;5.57;;
76852;SDS011;65825;52.232;10.566;2023-05-10T05:19:41;10.27;;;5.83;;
76852;SDS011;65825;52.232;10.566;2023-05-10T05:22:07;14.17;;;6.13;;
76852;SDS011;65825;52.232;10.566;2023-05-10T05:27:05;9.50;;;6.00;;
76852;SDS011;65825;52.232;10.566;2023-05-10T05:29:31;8.38;;;5.38;;
76852;SDS011;65825;52.232;10.566;2023-05-10T05:31:56;9.10;;;5.57;;
76852;SDS011;65825;52.232;10.566;2023-05-10T05:34:21;9.37;;;5.70;;
76852;SDS011;65825;52.232;10.566;2023-05-10T05:36:47;8.40;;;5.20;;
76852;SDS011;65825;52.232;10.566;2023-05-10T05:39:13;10.80;;;5.85;;
76852;SDS011;65825;52.232;10.566;2023-05-10T05:41:38;9.50;;;5.68;;
76852;SDS011;65825;52.232;10.566;2023-05-10T05:44:03;9.93;;;5.30;;
76852;SDS011;65825;52.232;10.566;2023-05-10T05:46:29;9.00;;;5.50;;
76852;SDS011;65825;52.232;10.566;2023-05-10T05:48:54;13.10;;;5.90;;
76852;SDS011;65825;52.232;10.566;2023-05-10T05:51:19;9.97;;;5.83;;
76852;SDS011;65825;52.232;10.566;2023-05-10T05:53:45;12.15;;;6.20;;
76852;SDS011;65825;52.232;10.566;2023-05-10T05:56:10;9.43;;;5.90;;
76852;SDS011;65825;52.232;10.566;2023-05-10T05:58:35;9.47;;;5.67;;
76852;SDS011;65825;52.232;10.566;2023-05-10T06:01:00;16.97;;;6.87;;
76852;SDS011;65825;52.232;10.566;2023-05-10T06:03:26;11.38;;;6.25;;
76852;SDS011;65825;52.232;10.566;2023-05-10T06:05:51;9.63;;;6.23;;
76852;SDS011;65825;52.232;10.566;2023-05-10T06:08:16;9.53;;;6.10;;
76852;SDS011;65825;52.232;10.566;2023-05-10T06:10:41;10.37;;;6.30;;
76852;SDS011;65825;52.232;10.566;2023-05-10T06:13:07;12.57;;;5.83;;
76852;SDS011;65825;52.232;10.566;2023-05-10T06:15:32;12.07;;;6.15;;
76852;SDS011;65825;52.232;10.566;2023-05-10T06:17:58;10.18;;;5.55;;
76852;SDS011;65825;52.232;10.566;2023-05-10T06:20:23;9.30;;;5.93;;
76852;SDS011;65825;52.232;10.566;2023-05-10T06:22:48;10.30;;;5.90;;
76852;SDS011;65825;52.232;10.566;2023-05-10T06:25:14;9.88;;;6.00;;
76852;SDS011;65825;52.232;10.566;2023-05-10T06:27:39;12.32;;;5.75;;
76852;SDS011;65825;52.232;10.566;2023-05-10T06:30:05;13.30;;;5.93;;
76852;SDS011;65825;52.232;10.566;2023-05-10T06:32:31;10.45;;;5.90;;
76852;SDS011;65825;52.232;10.566;2023-05-10T06:34:57;11.10;;;5.70;;
76852;SDS011;65825;52.232;10.566;2023-05-10T06:37:22;10.55;;;6.25;;
76852;SDS011;65825;52.232;10.566;2023-05-10T06:39:47;14.00;;;5.90;;
76852;SDS011;65825;52.232;10.566;2023-05-10T06:42:13;9.77;;;6.10;;
76852;SDS011;65825;52.232;10.566;2023-05-10T06:44:38;11.23;;;6.23;;
76852;SDS011;65825;52.232;10.566;2023-05-10T06:47:03;10.17;;;6.07;;
76852;SDS011;65825;52.232;10.566;2023-05-10T06:49:29;10.27;;;5.85;;
76852;SDS011;65825;52.232;10.566;2023-05-10T06:51:57;11.88;;;6.55;;
76852;SDS011;65825;52.232;10.566;2023-05-10T06:54:23;12.20;;;6.35;;
76852;SDS011;65825;52.232;10.566;2023-05-10T06:56:48;11.37;;;6.37;;
76852;SDS011;65825;52.232;10.566;2023-05-10T06:59:13;11.75;;;6.70;;
76852;SDS011;65825;52.232;10.566;2023-05-10T07:04:05;19.50;;;6.70;;
76852;SDS011;65825;52.232;10.566;2023-05-10T07:06:32;11.32;;;6.53;;
76852;SDS011;65825;52.232;10.566;2023-05-10T07:08:58;13.43;;;6.90;;
76852;SDS011;65825;52.232;10.566;2023-05-10T07:11:23;13.93;;;6.93;;
76852;SDS011;65825;52.232;10.566;2023-05-10T07:13:48;11.97;;;7.17;;
76852;SDS011;65825;52.232;10.566;2023-05-10T07:16:14;11.77;;;6.82;;
76852;SDS011;65825;52.232;10.566;2023-05-10T07:18:39;11.23;;;6.90;;
76852;SDS011;65825;52.232;10.566;2023-05-10T07:21:04;15.40;;;9.90;;
76852;SDS011;65825;52.232;10.566;2023-05-10T07:23:30;11.93;;;6.75;;
76852;SDS011;65825;52.232;10.566;2023-05-10T07:25:55;12.75;;;7.47;;
76852;SDS011;65825;52.232;10.566;2023-05-10T07:28:22;14.00;;;7.35;;
76852;SDS011;65825;52.232;10.566;2023-05-10T07:30:48;12.27;;;7.32;;
76852;SDS011;65825;52.232;10.566;2023-05-10T07:33:13;17.05;;;7.88;;
76852;SDS011;65825;52.232;10.566;2023-05-10T07:35:39;12.20;;;6.88;;
76852;SDS011;65825;52.232;10.566;2023-05-10T07:38:05;11.65;;;7.43;;
76852;SDS011;65825;52.232;10.566;2023-05-10T07:40:30;12.60;;;6.60;;
76852;SDS011;65825;52.232;10.566;2023-05-10T07:42:56;11.93;;;7.10;;
76852;SDS011;65825;52.232;10.566;2023-05-10T07:45:21;13.73;;;7.97;;
76852;SDS011;65825;52.232;10.566;2023-05-10T07:47:47;13.38;;;7.75;;
76852;SDS011;65825;52.232;10.566;2023-05-10T07:50:12;10.15;;;6.47;;
76852;SDS011;65825;52.232;10.566;2023-05-10T07:52:38;13.20;;;7.15;;
76852;SDS011;65825;52.232;10.566;2023-05-10T07:55:03;14.75;;;7.57;;
76852;SDS011;65825;52.232;10.566;2023-05-10T07:57:29;15.02;;;7.72;;
76852;SDS011;65825;52.232;10.566;2023-05-10T07:59:54;12.17;;;7.53;;
76852;SDS011;65825;52.232;10.566;2023-05-10T08:02:19;13.40;;;7.60;;
76852;SDS011;65825;52.232;10.566;2023-05-10T08:04:45;13.23;;;8.60;;
76852;SDS011;65825;52.232;10.566;2023-05-10T08:07:10;14.15;;;8.88;;
76852;SDS011;65825;52.232;10.566;2023-05-10T08:09:36;13.07;;;7.43;;
76852;SDS011;65825;52.232;10.566;2023-05-10T08:12:01;19.77;;;12.90;;
76852;SDS011;65825;52.232;10.566;2023-05-10T08:14:27;13.30;;;7.60;;
76852;SDS011;65825;52.232;10.566;2023-05-10T08:16:53;10.43;;;6.78;;
76852;SDS011;65825;52.232;10.566;2023-05-10T08:19:21;14.65;;;7.32;;
76852;SDS011;65825;52.232;10.566;2023-05-10T08:21:47;11.57;;;6.75;;
76852;SDS011;65825;52.232;10.566;2023-05-10T08:24:13;11.23;;;6.80;;
76852;SDS011;65825;52.232;10.566;2023-05-10T08:26:38;13.15;;;6.60;;
76852;SDS011;65825;52.232;10.566;2023-05-10T08:29:04;16.17;;;7.33;;
76852;SDS011;65825;52.232;10.566;2023-05-10T08:31:29;12.40;;;6.85;;
76852;SDS011;65825;52.232;10.566;2023-05-10T08:33:54;12.02;;;6.63;;
76852;SDS011;65825;52.232;10.566;2023-05-10T08:36:20;12.20;;;7.50;;
76852;SDS011;65825;52.232;10.566;2023-05-10T08:38:55;13.38;;;7.05;;
76852;SDS011;65825;52.232;10.566;2023-05-10T08:41:20;13.45;;;7.43;;
76852;SDS011;65825;52.232;10.566;2023-05-10T08:43:49;12.77;;;7.72;;
76852;SDS011;65825;52.232;10.566;2023-05-10T08:46:16;11.23;;;6.95;;
76852;SDS011;65825;52.232;10.566;2023-05-10T08:48:42;12.77;;;7.10;;
76852;SDS011;65825;52.232;10.566;2023-05-10T08:51:09;14.18;;;7.65;;
76852;SDS011;65825;52.232;10.566;2023-05-10T08:53:57;10.73;;;7.03;;
76852;SDS011;65825;52.232;10.566;2023-05-10T08:56:23;10.90;;;6.95;;
76852;SDS011;65825;52.232;10.566;2023-05-10T08:58:49;13.32;;;7.35;;
76852;SDS011;65825;52.232;10.566;2023-05-10T09:01:15;12.55;;;8.45;;
76852;SDS011;65825;52.232;10.566;2023-05-10T09:03:41;11.20;;;7.35;;
76852;SDS011;65825;52.232;10.566;2023-05-10T09:06:07;12.93;;;7.28;;
76852;SDS011;65825;52.232;10.566;2023-05-10T09:08:33;11.80;;;7.18;;
76852;SDS011;65825;52.232;10.566;2023-05-10T09:10:58;11.48;;;6.82;;
76852;SDS011;65825;52.232;10.566;2023-05-10T09:13:26;12.40;;;7.05;;
76852;SDS011;65825;52.232;10.566;2023-05-10T09:18:17;14.43;;;7.75;;
76852;SDS011;65825;52.232;10.566;2023-05-10T09:20:43;15.10;;;7.20;;
76852;SDS011;65825;52.232;10.566;2023-05-10T09:23:08;11.27;;;7.15;;
76852;SDS011;65825;52.232;10.566;2023-05-10T09:25:34;11.27;;;7.28;;
76852;SDS011;65825;52.232;10.566;2023-05-10T09:27:59;11.73;;;7.43;;
76852;SDS011;65825;52.232;10.566;2023-05-10T09:30:26;11.80;;;7.53;;
76852;SDS011;65825;52.232;10.566;2023-05-10T09:32:52;14.70;;;7.75;;
76852;SDS011;65825;52.232;10.566;2023-05-10T09:35:19;13.57;;;6.97;;
76852;SDS011;65825;52.232;10.566;2023-05-10T09:37:47;14.13;;;7.32;;
76852;SDS011;65825;52.232;10.566;2023-05-10T09:40:17;13.05;;;7.60;;
76852;SDS011;65825;52.232;10.566;2023-05-10T09:42:51;10.63;;;6.80;;
76852;SDS011;65825;52.232;10.566;2023-05-10T09:45:20;13.20;;;8.20;;
76852;SDS011;65825;52.232;10.566;2023-05-10T09:47:49;12.50;;;8.05;;
76852;SDS011;65825;52.232;10.566;2023-05-10T09:50:14;10.80;;;7.32;;
76852;SDS011;65825;52.232;10.566;2023-05-10T09:52:47;10.77;;;7.25;;
76852;SDS011;65825;52.232;10.566;2023-05-10T09:55:14;9.80;;;6.72;;
76852;SDS011;65825;52.232;10.566;2023-05-10T10:00:06;13.35;;;7.05;;
76852;SDS011;65825;52.232;10.566;2023-05-10T10:02:31;10.93;;;7.03;;
76852;SDS011;65825;52.232;10.566;2023-05-10T10:04:57;11.30;;;5.87;;
76852;SDS011;65825;52.232;10.566;2023-05-10T10:07:24;8.98;;;4.68;;
76852;SDS011;65825;52.232;10.566;2023-05-10T10:09:52;7.35;;;4.20;;
76852;SDS011;65825;52.232;10.566;2023-05-10T10:12:18;5.75;;;3.35;;
76852;SDS011;65825;52.232;10.566;2023-05-10T10:14:45;6.53;;;2.92;;
76852;SDS011;65825;52.232;10.566;2023-05-10T10:17:12;7.35;;;3.30;;
76852;SDS011;65825;52.232;10.566;2023-05-10T10:19:38;4.63;;;2.70;;
76852;SDS011;65825;52.232;10.566;2023-05-10T10:22:04;5.68;;;2.70;;
76852;SDS011;65825;52.232;10.566;2023-05-10T10:24:30;4.70;;;2.95;;
76852;SDS011;65825;52.232;10.566;2023-05-10T10:26:59;3.55;;;2.20;;
76852;SDS011;65825;52.232;10.566;2023-05-10T10:34:57;2.22;;;1.45;;
76852;SDS011;65825;52.232;10.566;2023-05-10T10:37:22;4.32;;;1.70;;
76852;SDS011;65825;52.232;10.566;2023-05-10T10:39:48;4.60;;;2.30;;
76852;SDS011;65825;52.232;10.566;2023-05-10T10:42:15;2.80;;;1.70;;
76852;SDS011;65825;52.232;10.566;2023-05-10T10:45:11;2.30;;;1.40;;
76852;SDS011;65825;52.232;10.566;2023-05-10T10:47:37;2.85;;;1.48;;
76852;SDS011;65825;52.232;10.566;2023-05-10T10:50:04;4.55;;;1.52;;
76852;SDS011;65825;52.232;10.566;2023-05-10T10:52:37;1.92;;;1.40;;
76852;SDS011;65825;52.232;10.566;2023-05-10T10:55:05;2.40;;;1.63;;
76852;SDS011;65825;52.232;10.566;2023-05-10T11:03:03;2.60;;;1.77;;
76852;SDS011;65825;52.232;10.566;2023-05-10T11:05:39;4.28;;;1.80;;
76852;SDS011;65825;52.232;10.566;2023-05-10T11:13:28;2.70;;;1.70;;
76852;SDS011;65825;52.232;10.566;2023-05-10T11:15:56;2.40;;;1.58;;
76852;SDS011;65825;52.232;10.566;2023-05-10T11:18:24;2.40;;;1.50;;
76852;SDS011;65825;52.232;10.566;2023-05-10T11:20:58;1.70;;;1.30;;
76852;SDS011;65825;52.232;10.566;2023-05-10T11:26:11;2.30;;;1.55;;
76852;SDS011;65825;52.232;10.566;2023-05-10T11:28:43;2.42;;;1.70;;
76852;SDS011;65825;52.232;10.566;2023-05-10T11:31:10;2.28;;;1.58;;
76852;SDS011;65825;52.232;10.566;2023-05-10T11:33:45;3.53;;;1.80;;
76852;SDS011;65825;52.232;10.566;2023-05-10T11:36:12;2.75;;;1.70;;
76852;SDS011;65825;52.232;10.566;2023-05-10T11:38:40;1.95;;;1.33;;
76852;SDS011;65825;52.232;10.566;2023-05-10T11:41:07;2.08;;;1.40;;
76852;SDS011;65825;52.232;10.566;2023-05-10T11:43:37;3.30;;;1.77;;
76852;SDS011;65825;52.232;10.566;2023-05-10T11:46:07;3.65;;;1.60;;
76852;SDS011;65825;52.232;10.566;2023-05-10T11:48:34;2.63;;;1.52;;
76852;SDS011;65825;52.232;10.566;2023-05-10T11:51:00;3.17;;;1.52;;
76852;SDS011;65825;52.232;10.566;2023-05-10T11:53:27;2.63;;;1.58;;
76852;SDS011;65825;52.232;10.566;2023-05-10T11:55:54;1.85;;;1.40;;
76852;SDS011;65825;52.232;10.566;2023-05-10T11:58:19;1.98;;;1.40;;
76852;SDS011;65825;52.232;10.566;2023-05-10T12:00:46;2.55;;;1.58;;
76852;SDS011;65825;52.232;10.566;2023-05-10T12:03:12;2.78;;;1.70;;
76852;SDS011;65825;52.232;10.566;2023-05-10T12:05:38;2.10;;;1.50;;
76852;SDS011;65825;52.232;10.566;2023-05-10T12:08:12;3.20;;;1.77;;
76852;SDS011;65825;52.232;10.566;2023-05-10T12:10:38;2.17;;;1.50;;
76852;SDS011;65825;52.232;10.566;2023-05-10T12:13:04;2.40;;;1.70;;
76852;SDS011;65825;52.232;10.566;2023-05-10T12:15:29;2.97;;;1.70;;
76852;SDS011;65825;52.232;10.566;2023-05-10T12:17:54;3.28;;;1.67;;
76852;SDS011;65825;52.232;10.566;2023-05-10T12:20:22;2.28;;;1.58;;
76852;SDS011;65825;52.232;10.566;2023-05-10T12:22:53;3.10;;;1.63;;
76852;SDS011;65825;52.232;10.566;2023-05-10T12:25:20;1.48;;;1.30;;
76852;SDS011;65825;52.232;10.566;2023-05-10T12:27:53;3.42;;;1.90;;
76852;SDS011;65825;52.232;10.566;2023-05-10T12:30:20;2.50;;;1.65;;
76852;SDS011;65825;52.232;10.566;2023-05-10T12:32:47;4.80;;;1.65;;
76852;SDS011;65825;52.232;10.566;2023-05-10T12:35:12;2.90;;;1.60;;
76852;SDS011;65825;52.232;10.566;2023-05-10T12:37:37;2.40;;;1.53;;
76852;SDS011;65825;52.232;10.566;2023-05-10T12:40:06;3.88;;;1.60;;
76852;SDS011;65825;52.232;10.566;2023-05-10T12:42:33;3.47;;;1.92;;
76852;SDS011;65825;52.232;10.566;2023-05-10T12:44:58;2.40;;;1.50;;
76852;SDS011;65825;52.232;10.566;2023-05-10T12:47:23;3.03;;;1.60;;
76852;SDS011;65825;52.232;10.566;2023-05-10T12:49:49;3.08;;;1.40;;
76852;SDS011;65825;52.232;10.566;2023-05-10T12:52:14;2.95;;;1.60;;
76852;SDS011;65825;52.232;10.566;2023-05-10T12:54:40;2.43;;;1.43;;
76852;SDS011;65825;52.232;10.566;2023-05-10T12:59:30;3.10;;;1.70;;
76852;SDS011;65825;52.232;10.566;2023-05-10T13:04:22;2.00;;;1.33;;
76852;SDS011;65825;52.232;10.566;2023-05-10T13:09:12;3.23;;;1.80;;
76852;SDS011;65825;52.232;10.566;2023-05-10T13:11:37;4.50;;;1.47;;
76852;SDS011;65825;52.232;10.566;2023-05-10T13:14:03;4.55;;;1.77;;
76852;SDS011;65825;52.232;10.566;2023-05-10T13:16:28;2.83;;;1.63;;
76852;SDS011;65825;52.232;10.566;2023-05-10T13:18:53;3.80;;;1.70;;
76852;SDS011;65825;52.232;10.566;2023-05-10T13:21:18;3.85;;;1.48;;
76852;SDS011;65825;52.232;10.566;2023-05-10T13:26:09;3.10;;;1.67;;
76852;SDS011;65825;52.232;10.566;2023-05-10T13:30:59;4.23;;;1.80;;
76852;SDS011;65825;52.232;10.566;2023-05-10T13:35:50;2.83;;;1.43;;
76852;SDS011;65825;52.232;10.566;2023-05-10T13:40:40;2.83;;;1.50;;
76852;SDS011;65825;52.232;10.566;2023-05-10T13:43:06;3.63;;;1.45;;
76852;SDS011;65825;52.232;10.566;2023-05-10T13:47:56;3.80;;;1.60;;
76852;SDS011;65825;52.232;10.566;2023-05-10T13:52:47;6.03;;;1.80;;
76852;SDS011;65825;52.232;10.566;2023-05-10T13:57:38;4.82;;;1.80;;
76852;SDS011;65825;52.232;10.566;2023-05-10T14:02:29;3.78;;;1.75;;
76852;SDS011;65825;52.232;10.566;2023-05-10T14:07:20;4.10;;;2.07;;
76852;SDS011;65825;52.232;10.566;2023-05-10T14:12:10;3.43;;;1.70;;
76852;SDS011;65825;52.232;10.566;2023-05-10T14:14:36;3.67;;;1.77;;
76852;SDS011;65825;52.232;10.566;2023-05-10T14:17:01;2.80;;;1.73;;
76852;SDS011;65825;52.232;10.566;2023-05-10T14:19:26;3.88;;;1.70;;
76852;SDS011;65825;52.232;10.566;2023-05-10T14:21:52;4.18;;;2.05;;
76852;SDS011;65825;52.232;10.566;2023-05-10T14:24:17;4.82;;;1.77;;
76852;SDS011;65825;52.232;10.566;2023-05-10T14:26:43;3.17;;;2.00;;
76852;SDS011;65825;52.232;10.566;2023-05-10T14:29:08;3.03;;;1.70;;
76852;SDS011;65825;52.232;10.566;2023-05-10T14:33:58;2.30;;;1.47;;
76852;SDS011;65825;52.232;10.566;2023-05-10T14:36:24;4.05;;;1.98;;
76852;SDS011;65825;52.232;10.566;2023-05-10T14:38:49;3.00;;;1.80;;
76852;SDS011;65825;52.232;10.566;2023-05-10T14:43:42;3.95;;;1.80;;
76852;SDS011;65825;52.232;10.566;2023-05-10T14:48:33;3.17;;;2.05;;
76852;SDS011;65825;52.232;10.566;2023-05-10T14:53:23;3.37;;;1.90;;
76852;SDS011;65825;52.232;10.566;2023-05-10T14:58:14;7.80;;;2.13;;
76852;SDS011;65825;52.232;10.566;2023-05-10T15:03:05;2.97;;;1.85;;
76852;SDS011;65825;52.232;10.566;2023-05-10T15:05:30;5.13;;;2.03;;
76852;SDS011;65825;52.232;10.566;2023-05-10T15:07:56;3.53;;;2.27;;
76852;SDS011;65825;52.232;10.566;2023-05-10T15:12:46;4.73;;;2.70;;
76852;SDS011;65825;52.232;10.566;2023-05-10T15:15:11;4.70;;;2.37;;
76852;SDS011;65825;52.232;10.566;2023-05-10T15:17:37;3.73;;;2.20;;
76852;SDS011;65825;52.232;10.566;2023-05-10T15:20:02;4.10;;;2.47;;
76852;SDS011;65825;52.232;10.566;2023-05-10T15:22:28;3.50;;;2.00;;
76852;SDS011;65825;52.232;10.566;2023-05-10T15:27:19;3.78;;;2.63;;
76852;SDS011;65825;52.232;10.566;2023-05-10T15:29:44;4.50;;;2.80;;
76852;SDS011;65825;52.232;10.566;2023-05-10T15:34:35;4.87;;;3.03;;
76852;SDS011;65825;52.232;10.566;2023-05-10T15:37:00;3.80;;;2.97;;
76852;SDS011;65825;52.232;10.566;2023-05-10T15:39:26;5.75;;;2.83;;
76852;SDS011;65825;52.232;10.566;2023-05-10T15:41:51;4.67;;;2.60;;
76852;SDS011;65825;52.232;10.566;2023-05-10T15:46:42;7.57;;;3.40;;
76852;SDS011;65825;52.232;10.566;2023-05-10T15:49:07;5.37;;;3.17;;
76852;SDS011;65825;52.232;10.566;2023-05-10T15:51:32;4.67;;;3.27;;
76852;SDS011;65825;52.232;10.566;2023-05-10T15:53:57;4.40;;;3.27;;
76852;SDS011;65825;52.232;10.566;2023-05-10T15:58:48;4.38;;;3.42;;
76852;SDS011;65825;52.232;10.566;2023-05-10T16:01:13;6.20;;;3.30;;
76852;SDS011;65825;52.232;10.566;2023-05-10T16:03:39;4.63;;;3.33;;
76852;SDS011;65825;52.232;10.566;2023-05-10T16:08:29;5.63;;;3.50;;
76852;SDS011;65825;52.232;10.566;2023-05-10T16:10:57;4.32;;;3.42;;
76852;SDS011;65825;52.232;10.566;2023-05-10T16:13:22;4.30;;;3.10;;
76852;SDS011;65825;52.232;10.566;2023-05-10T16:15:47;8.25;;;5.18;;
76852;SDS011;65825;52.232;10.566;2023-05-10T16:18:13;4.37;;;3.10;;
76852;SDS011;65825;52.232;10.566;2023-05-10T16:20:38;5.15;;;3.40;;
76852;SDS011;65825;52.232;10.566;2023-05-10T16:23:04;4.63;;;3.08;;
76852;SDS011;65825;52.232;10.566;2023-05-10T16:25:31;5.13;;;3.28;;